createdAt,value
2023-04-30T00:00:40.216Z,69.00
2023-04-30T00:03:08.402Z,69.10
2023-04-30T00:05:37.388Z,69.20
2023-04-30T00:08:06.885Z,69.00
2023-04-30T00:10:34.968Z,69.10
2023-04-30T00:13:03.047Z,69.00
2023-04-30T00:15:31.222Z,68.90
2023-04-30T00:17:59.310Z,68.90
2023-04-30T00:20:27.455Z,69.00
2023-04-30T00:22:55.787Z,69.00
2023-04-30T00:25:25.599Z,68.90
2023-04-30T00:27:53.864Z,69.00
2023-04-30T00:30:21.935Z,69.00
2023-04-30T00:32:50.073Z,68.90
2023-04-30T00:35:18.499Z,69.00
2023-04-30T00:37:46.588Z,69.00
2023-04-30T00:40:15.044Z,69.00
2023-04-30T00:42:44.486Z,69.00
2023-04-30T00:45:12.906Z,69.10
2023-04-30T00:47:41.736Z,69.00
2023-04-30T00:50:11.271Z,68.90
2023-04-30T00:52:39.527Z,68.80
2023-04-30T00:55:08.493Z,69.50
2023-04-30T00:57:37.853Z,68.80
2023-04-30T01:00:11.074Z,68.80
2023-04-30T01:02:39.553Z,68.90
2023-04-30T01:05:08.820Z,69.00
2023-04-30T01:07:38.978Z,69.10
2023-04-30T01:10:08.407Z,69.10
2023-04-30T01:12:42.442Z,69.10
2023-04-30T01:15:19.581Z,69.20
2023-04-30T01:17:56.756Z,69.20
2023-04-30T01:20:27.658Z,69.10
2023-04-30T01:23:01.864Z,69.30
2023-04-30T01:25:53.391Z,69.30
2023-04-30T01:28:24.851Z,70.00
2023-04-30T01:30:53.113Z,69.20
2023-04-30T01:33:21.352Z,69.20
2023-04-30T01:36:09.737Z,69.00
2023-04-30T01:39:00.900Z,69.10
2023-04-30T01:41:34.860Z,69.00
2023-04-30T01:44:25.213Z,68.90
2023-04-30T01:47:00.162Z,69.70
2023-04-30T01:49:38.189Z,69.80
2023-04-30T01:52:14.666Z,69.10
2023-04-30T01:54:50.232Z,69.10
2023-04-30T01:57:24.282Z,69.10
2023-04-30T01:59:54.452Z,69.00
2023-04-30T02:02:22.717Z,69.10
2023-04-30T02:04:50.886Z,69.00
2023-04-30T02:07:30.348Z,68.90
2023-04-30T02:09:58.461Z,69.00
2023-04-30T02:12:27.742Z,68.90
2023-04-30T02:14:57.216Z,69.10
2023-04-30T02:17:25.281Z,69.20
2023-04-30T02:19:53.614Z,69.40
2023-04-30T02:22:21.916Z,69.60
2023-04-30T02:24:50.064Z,69.70
2023-04-30T02:27:18.305Z,69.60
2023-04-30T02:29:46.561Z,69.60
2023-04-30T02:32:16.020Z,69.60
2023-04-30T02:34:44.189Z,69.60
2023-04-30T02:37:12.375Z,69.60
2023-04-30T02:39:41.215Z,69.60
2023-04-30T02:42:09.307Z,69.80
2023-04-30T02:44:37.364Z,69.60
2023-04-30T02:47:05.444Z,69.80
2023-04-30T02:49:35.042Z,69.90
2023-04-30T02:52:03.218Z,70.00
2023-04-30T02:54:31.269Z,70.10
2023-04-30T02:56:59.353Z,70.30
2023-04-30T02:59:27.485Z,70.30
2023-04-30T03:01:55.560Z,70.40
2023-04-30T03:04:23.602Z,70.50
2023-04-30T03:06:53.047Z,70.60
2023-04-30T03:09:21.162Z,70.70
2023-04-30T03:11:49.362Z,70.70
2023-04-30T03:14:17.409Z,70.70
2023-04-30T03:16:45.583Z,70.80
2023-04-30T03:19:13.714Z,71.00
2023-04-30T03:21:41.903Z,71.10
2023-04-30T03:24:11.367Z,71.20
2023-04-30T03:26:39.497Z,71.30
2023-04-30T03:29:07.737Z,71.30
2023-04-30T03:31:35.858Z,71.40
2023-04-30T03:34:03.945Z,71.50
2023-04-30T03:36:32.553Z,71.60
2023-04-30T03:39:00.846Z,71.70
2023-04-30T03:41:30.267Z,71.80
2023-04-30T03:43:58.387Z,71.90
2023-04-30T03:46:26.487Z,72.00
2023-04-30T03:48:54.571Z,72.10
2023-04-30T03:51:23.451Z,72.10
2023-04-30T03:53:51.506Z,72.20
2023-04-30T03:56:19.650Z,72.20
2023-04-30T03:58:49.157Z,72.30
2023-04-30T04:01:17.330Z,72.50
2023-04-30T04:03:45.563Z,72.50
2023-04-30T04:06:13.696Z,72.50
2023-04-30T04:08:43.342Z,72.60
2023-04-30T04:11:11.525Z,72.70
2023-04-30T04:13:39.607Z,72.70
2023-04-30T04:16:09.812Z,72.80
2023-04-30T04:18:37.929Z,72.80
2023-04-30T04:21:06.739Z,73.00
2023-04-30T04:23:34.818Z,73.00
2023-04-30T04:26:03.253Z,73.00
2023-04-30T04:28:32.008Z,73.10
2023-04-30T04:31:00.103Z,73.10
2023-04-30T04:33:29.567Z,73.20
2023-04-30T04:35:57.999Z,73.30
2023-04-30T04:38:26.867Z,73.40
2023-04-30T04:40:55.289Z,73.40
2023-04-30T04:43:23.361Z,73.40
2023-04-30T04:45:52.273Z,73.50
2023-04-30T04:48:20.350Z,73.50
2023-04-30T04:50:49.794Z,73.50
2023-04-30T04:53:17.852Z,73.50
2023-04-30T04:55:45.902Z,73.60
2023-04-30T04:58:13.988Z,73.60
2023-04-30T05:00:42.201Z,73.70
2023-04-30T05:03:10.409Z,73.70
2023-04-30T05:05:38.658Z,73.70
2023-04-30T05:08:08.180Z,73.70
2023-04-30T05:10:36.338Z,73.80
2023-04-30T05:13:04.700Z,73.80
2023-04-30T05:15:32.757Z,73.90
2023-04-30T05:18:00.910Z,74.00
2023-04-30T05:20:29.006Z,74.10
2023-04-30T05:22:57.060Z,74.10
2023-04-30T05:25:26.615Z,74.30
2023-04-30T05:27:54.685Z,74.40
2023-04-30T05:30:22.727Z,74.50
2023-04-30T05:32:52.705Z,74.50
2023-04-30T05:35:21.235Z,74.60
2023-04-30T05:37:49.468Z,74.50
2023-04-30T05:40:17.851Z,74.50
2023-04-30T05:42:47.294Z,74.60
2023-04-30T05:45:17.231Z,74.60
2023-04-30T05:47:45.625Z,74.80
2023-04-30T05:50:13.925Z,74.70
2023-04-30T05:52:42.028Z,74.80
2023-04-30T05:55:11.049Z,74.80
2023-04-30T05:57:39.305Z,74.90
2023-04-30T06:00:10.293Z,74.90
2023-04-30T06:02:38.522Z,74.90
2023-04-30T06:05:08.952Z,74.90
2023-04-30T06:07:37.173Z,74.90
2023-04-30T06:10:05.977Z,75.00
2023-04-30T06:12:34.057Z,75.00
2023-04-30T06:15:02.327Z,75.00
2023-04-30T06:17:31.868Z,75.00
2023-04-30T06:20:02.564Z,75.00
2023-04-30T06:22:31.692Z,75.10
2023-04-30T06:24:59.823Z,75.20
2023-04-30T06:27:28.881Z,75.30
2023-04-30T06:29:57.154Z,75.50
2023-04-30T06:32:25.310Z,75.60
2023-04-30T06:34:54.792Z,75.60
2023-04-30T06:37:22.908Z,75.50
2023-04-30T06:39:51.651Z,75.30
2023-04-30T06:42:19.745Z,75.30
2023-04-30T06:44:47.811Z,75.30
2023-04-30T06:47:15.910Z,75.40
2023-04-30T06:49:43.975Z,75.30
2023-04-30T06:52:13.414Z,75.30
2023-04-30T06:54:42.947Z,75.40
2023-04-30T06:57:11.039Z,75.40
2023-04-30T06:59:39.391Z,75.30
2023-04-30T07:02:07.727Z,75.20
2023-04-30T07:04:35.920Z,74.90
2023-04-30T07:07:04.421Z,74.80
2023-04-30T07:09:33.878Z,74.80
2023-04-30T07:12:02.111Z,74.90
2023-04-30T07:14:30.188Z,74.90
2023-04-30T07:16:58.246Z,74.60
2023-04-30T07:19:27.032Z,74.60
2023-04-30T07:21:55.078Z,74.20
2023-04-30T07:24:23.109Z,73.90
2023-04-30T07:26:52.689Z,73.80
2023-04-30T07:29:20.810Z,73.60
2023-04-30T07:31:48.894Z,73.40
2023-04-30T07:34:17.013Z,73.30
2023-04-30T07:36:45.075Z,73.30
2023-04-30T07:39:13.897Z,73.00
2023-04-30T07:41:42.003Z,72.70
2023-04-30T07:44:12.040Z,72.40
2023-04-30T07:46:40.283Z,72.20
2023-04-30T07:49:08.500Z,71.80
2023-04-30T07:51:37.422Z,71.70
2023-04-30T07:54:06.050Z,71.70
2023-04-30T07:56:34.116Z,71.30
2023-04-30T07:59:02.186Z,71.00
2023-04-30T08:01:31.855Z,70.90
2023-04-30T08:04:00.085Z,70.70
2023-04-30T08:06:29.049Z,70.60
2023-04-30T08:08:57.274Z,70.50
2023-04-30T08:11:25.433Z,70.20
2023-04-30T08:13:53.956Z,70.10
2023-04-30T08:16:22.123Z,70.00
2023-04-30T08:18:51.746Z,69.90
2023-04-30T08:21:20.033Z,69.70
2023-04-30T08:23:48.154Z,69.70
2023-04-30T08:26:16.234Z,69.80
2023-04-30T08:28:44.319Z,69.80
2023-04-30T08:31:13.330Z,69.80
2023-04-30T08:33:41.465Z,69.60
2023-04-30T08:36:11.116Z,69.20
2023-04-30T08:38:39.174Z,68.80
2023-04-30T08:41:12.222Z,68.70
2023-04-30T08:43:40.786Z,68.70
2023-04-30T08:46:09.232Z,68.40
2023-04-30T08:48:37.503Z,68.70
2023-04-30T08:51:06.072Z,67.70
2023-04-30T08:53:37.434Z,67.50
2023-04-30T08:56:05.920Z,67.30
2023-04-30T08:58:34.158Z,67.00
2023-04-30T09:01:02.893Z,66.70
2023-04-30T09:03:32.410Z,66.40
2023-04-30T09:06:00.644Z,66.20
2023-04-30T09:08:48.075Z,66.30
2023-04-30T09:11:26.914Z,65.80
2023-04-30T09:14:01.022Z,65.70
2023-04-30T09:16:31.572Z,65.40
2023-04-30T09:19:00.424Z,65.10
2023-04-30T09:21:35.747Z,64.90
2023-04-30T09:24:06.324Z,64.40
2023-04-30T09:26:35.799Z,64.10
2023-04-30T09:29:08.112Z,63.70
2023-04-30T09:31:37.186Z,63.60
2023-04-30T09:34:06.228Z,63.80
2023-04-30T09:36:34.651Z,63.70
2023-04-30T09:39:14.235Z,63.50
2023-04-30T09:41:43.558Z,63.30
2023-04-30T09:44:28.319Z,63.30
2023-04-30T09:46:57.993Z,62.90
2023-04-30T09:49:26.489Z,62.90
2023-04-30T09:51:57.955Z,62.60
2023-04-30T09:54:29.519Z,62.10
2023-04-30T09:56:59.175Z,62.10
2023-04-30T09:59:36.614Z,61.60
2023-04-30T10:02:06.971Z,61.00
2023-04-30T10:04:36.514Z,61.00
2023-04-30T10:07:09.650Z,60.80
2023-04-30T10:09:44.850Z,60.60
2023-04-30T10:12:16.903Z,60.60
2023-04-30T10:14:51.137Z,60.60
2023-04-30T10:17:20.133Z,60.30
2023-04-30T10:19:50.848Z,60.20
2023-04-30T10:22:19.401Z,59.70
2023-04-30T10:24:49.525Z,59.40
2023-04-30T10:27:18.010Z,58.90
2023-04-30T10:29:47.472Z,58.60
2023-04-30T10:32:16.818Z,58.60
2023-04-30T10:34:54.478Z,58.70
2023-04-30T10:37:32.224Z,58.70
2023-04-30T10:40:02.263Z,58.70
2023-04-30T10:42:30.425Z,58.60
2023-04-30T10:44:58.545Z,58.50
2023-04-30T10:47:30.901Z,58.50
2023-04-30T10:50:04.242Z,58.50
2023-04-30T10:52:32.364Z,58.70
2023-04-30T10:55:06.253Z,58.80
2023-04-30T10:57:42.789Z,58.80
2023-04-30T11:00:20.979Z,58.90
2023-04-30T11:02:49.985Z,58.90
2023-04-30T11:05:19.808Z,58.90
2023-04-30T11:07:50.546Z,58.90
2023-04-30T11:10:23.741Z,59.10
2023-04-30T11:12:53.593Z,59.20
2023-04-30T11:15:25.483Z,59.20
2023-04-30T11:17:58.264Z,58.90
2023-04-30T11:20:27.501Z,58.70
2023-04-30T11:23:19.686Z,58.60
2023-04-30T11:25:57.762Z,58.50
2023-04-30T11:28:27.325Z,58.60
2023-04-30T11:30:57.054Z,58.70
2023-04-30T11:33:26.262Z,59.20
2023-04-30T11:35:56.102Z,58.80
2023-04-30T11:38:27.311Z,58.60
2023-04-30T11:40:57.758Z,58.50
2023-04-30T11:43:27.337Z,58.30
2023-04-30T11:46:03.242Z,58.10
2023-04-30T11:48:35.680Z,58.00
2023-04-30T11:51:15.486Z,57.90
2023-04-30T11:53:43.672Z,57.80
2023-04-30T11:56:13.116Z,58.00
2023-04-30T11:58:41.334Z,58.10
2023-04-30T12:01:10.964Z,58.20
2023-04-30T12:03:43.935Z,58.10
2023-04-30T12:06:13.124Z,58.20
2023-04-30T12:08:43.102Z,58.20
2023-04-30T12:11:26.060Z,58.10
2023-04-30T12:13:55.611Z,58.10
2023-04-30T12:16:25.232Z,58.10
2023-04-30T12:18:53.439Z,57.90
2023-04-30T12:21:23.033Z,57.80
2023-04-30T12:23:51.566Z,57.60
2023-04-30T12:26:19.617Z,57.50
2023-04-30T12:28:50.489Z,57.40
2023-04-30T12:31:19.212Z,57.30
2023-04-30T12:33:56.445Z,57.20
2023-04-30T12:36:32.728Z,57.00
2023-04-30T12:39:18.727Z,56.80
2023-04-30T12:41:48.818Z,56.50
2023-04-30T12:44:22.310Z,56.80
2023-04-30T12:46:53.479Z,56.80
2023-04-30T12:49:27.282Z,56.80
2023-04-30T12:52:01.297Z,56.90
2023-04-30T12:54:30.649Z,56.90
2023-04-30T12:57:03.553Z,56.90
2023-04-30T12:59:34.215Z,56.80
2023-04-30T13:02:12.838Z,56.70
2023-04-30T13:04:42.037Z,56.50
2023-04-30T13:07:10.325Z,56.50
2023-04-30T13:09:39.484Z,56.60
2023-04-30T13:12:07.772Z,56.70
2023-04-30T13:14:37.301Z,56.70
2023-04-30T13:17:07.521Z,56.50
2023-04-30T13:19:35.681Z,56.50
2023-04-30T13:22:03.817Z,56.50
2023-04-30T13:24:32.193Z,56.40
2023-04-30T13:27:00.369Z,56.40
2023-04-30T13:29:28.425Z,56.30
2023-04-30T13:31:58.217Z,56.30
2023-04-30T13:34:26.281Z,56.40
2023-04-30T13:36:54.745Z,56.40
2023-04-30T13:39:23.213Z,56.40
2023-04-30T13:41:51.313Z,56.30
2023-04-30T13:44:19.396Z,56.30
2023-04-30T13:46:47.484Z,56.30
2023-04-30T13:49:17.052Z,56.40
2023-04-30T13:51:45.120Z,56.40
2023-04-30T13:54:13.189Z,56.60
2023-04-30T13:56:41.310Z,56.60
2023-04-30T13:59:09.670Z,56.50
2023-04-30T14:01:37.774Z,56.50
2023-04-30T14:04:06.148Z,56.40
2023-04-30T14:06:36.939Z,56.50
2023-04-30T14:09:05.213Z,56.40
2023-04-30T14:11:33.306Z,56.40
2023-04-30T14:14:01.383Z,56.30
2023-04-30T14:16:30.454Z,56.20
2023-04-30T14:18:58.711Z,56.30
2023-04-30T14:21:27.569Z,56.30
2023-04-30T14:23:56.996Z,56.20
2023-04-30T14:26:25.103Z,56.30
2023-04-30T14:28:53.358Z,56.30
2023-04-30T14:31:21.425Z,56.50
2023-04-30T14:33:49.530Z,56.60
2023-04-30T14:36:17.662Z,56.60
2023-04-30T14:38:45.706Z,56.70
2023-04-30T14:41:15.356Z,56.70
2023-04-30T14:43:43.420Z,56.70
2023-04-30T14:46:11.813Z,56.80
2023-04-30T14:48:40.148Z,56.70
2023-04-30T14:51:08.285Z,56.70
2023-04-30T14:53:37.430Z,56.70
2023-04-30T14:56:07.213Z,56.70
2023-04-30T14:58:36.663Z,56.70
2023-04-30T15:01:04.964Z,56.80
2023-04-30T15:03:33.318Z,56.80
2023-04-30T15:06:01.583Z,56.70
2023-04-30T15:08:29.769Z,56.60
2023-04-30T15:10:58.512Z,56.50
2023-04-30T15:13:26.659Z,56.60
2023-04-30T15:15:56.233Z,56.70
2023-04-30T15:18:24.347Z,56.70
2023-04-30T15:20:52.419Z,56.70
2023-04-30T15:23:20.930Z,56.80
2023-04-30T15:25:49.180Z,56.70
2023-04-30T15:28:17.327Z,56.70
2023-04-30T15:30:45.381Z,56.70
2023-04-30T15:33:14.828Z,56.60
2023-04-30T15:35:43.057Z,56.60
2023-04-30T15:38:11.098Z,56.60
2023-04-30T15:40:39.149Z,56.70
2023-04-30T15:43:07.935Z,56.70
2023-04-30T15:45:36.053Z,56.70
2023-04-30T15:48:04.375Z,56.70
2023-04-30T15:50:33.951Z,56.60
2023-04-30T15:53:02.206Z,56.70
2023-04-30T15:55:30.796Z,56.60
2023-04-30T15:57:58.845Z,56.50
2023-04-30T16:00:27.273Z,56.60
2023-04-30T16:02:55.608Z,56.60
2023-04-30T16:05:23.897Z,56.70
2023-04-30T16:07:53.527Z,56.60
2023-04-30T16:10:22.155Z,56.40
2023-04-30T16:12:50.241Z,56.20
2023-04-30T16:15:18.533Z,56.20
2023-04-30T16:17:46.570Z,56.00
2023-04-30T16:20:15.228Z,55.90
2023-04-30T16:22:43.488Z,55.70
2023-04-30T16:25:13.110Z,55.70
2023-04-30T16:27:41.271Z,55.60
2023-04-30T16:30:10.559Z,55.60
2023-04-30T16:32:38.696Z,55.60
2023-04-30T16:35:07.612Z,55.60
2023-04-30T16:37:35.880Z,55.50
2023-04-30T16:40:06.220Z,55.60
2023-04-30T16:42:36.200Z,55.60
2023-04-30T16:45:04.422Z,55.60
2023-04-30T16:47:32.582Z,55.50
2023-04-30T16:50:00.750Z,55.50
2023-04-30T16:52:29.676Z,55.30
2023-04-30T16:54:57.762Z,55.30
2023-04-30T16:57:26.146Z,55.30
2023-04-30T16:59:55.774Z,55.20
2023-04-30T17:02:24.347Z,55.20
2023-04-30T17:04:52.610Z,55.30
2023-04-30T17:07:20.731Z,55.30
2023-04-30T17:09:48.838Z,55.20
2023-04-30T17:12:16.950Z,55.20
2023-04-30T17:14:45.045Z,55.20
2023-04-30T17:17:14.516Z,55.10
2023-04-30T17:19:42.585Z,55.20
2023-04-30T17:22:10.683Z,55.20
2023-04-30T17:24:38.782Z,55.20
2023-04-30T17:27:06.861Z,55.30
2023-04-30T17:29:35.043Z,55.30
2023-04-30T17:32:03.943Z,55.30
2023-04-30T17:34:33.410Z,55.30
2023-04-30T17:37:01.468Z,55.40
2023-04-30T17:39:32.396Z,55.40
2023-04-30T17:42:00.855Z,55.50
2023-04-30T17:44:31.393Z,55.40
2023-04-30T17:46:59.453Z,55.40
2023-04-30T17:49:28.564Z,55.50
2023-04-30T17:51:59.046Z,55.50
2023-04-30T17:54:27.221Z,55.50
2023-04-30T17:56:55.589Z,55.60
2023-04-30T17:59:23.722Z,55.60
2023-04-30T18:01:51.894Z,55.60
2023-04-30T18:04:20.871Z,55.70
2023-04-30T18:06:49.236Z,56.10
2023-04-30T18:09:18.983Z,55.80
2023-04-30T18:11:47.043Z,55.80
2023-04-30T18:14:15.119Z,55.80
2023-04-30T18:16:43.321Z,55.80
2023-04-30T18:19:11.483Z,55.90
2023-04-30T18:21:39.650Z,55.80
2023-04-30T18:24:07.692Z,55.80
2023-04-30T18:26:37.539Z,55.80
2023-04-30T18:29:06.123Z,55.90
2023-04-30T18:31:36.681Z,55.90
2023-04-30T18:34:04.964Z,56.00
2023-04-30T18:36:33.138Z,56.70
2023-04-30T18:39:01.182Z,56.20
2023-04-30T18:41:29.308Z,56.30
2023-04-30T18:43:58.856Z,56.40
2023-04-30T18:46:27.110Z,56.40
2023-04-30T18:48:56.269Z,56.50
2023-04-30T18:51:24.323Z,56.60
2023-04-30T18:53:52.502Z,56.60
2023-04-30T18:56:22.018Z,56.70
2023-04-30T18:58:50.447Z,56.90
2023-04-30T19:01:21.517Z,57.00
2023-04-30T19:03:49.805Z,57.10
2023-04-30T19:06:18.022Z,57.10
2023-04-30T19:08:46.868Z,57.10
2023-04-30T19:11:15.111Z,57.20
2023-04-30T19:13:43.175Z,57.20
2023-04-30T19:16:11.384Z,57.30
2023-04-30T19:18:40.974Z,57.20
2023-04-30T19:21:09.463Z,57.40
2023-04-30T19:23:38.486Z,57.30
2023-04-30T19:26:06.592Z,57.40
2023-04-30T19:28:34.648Z,57.40
2023-04-30T19:31:03.984Z,57.50
2023-04-30T19:33:36.621Z,57.50
2023-04-30T19:36:06.808Z,57.60
2023-04-30T19:38:34.887Z,57.70
2023-04-30T19:41:02.937Z,57.70
2023-04-30T19:43:31.564Z,57.80
2023-04-30T19:46:01.959Z,57.80
2023-04-30T19:48:31.092Z,57.90
2023-04-30T19:50:59.190Z,57.90
2023-04-30T19:53:29.141Z,58.00
2023-04-30T19:55:57.238Z,58.00
2023-04-30T19:58:25.288Z,58.00
2023-04-30T20:00:53.527Z,58.10
2023-04-30T20:03:25.254Z,58.10
2023-04-30T20:05:54.124Z,58.10
2023-04-30T20:08:22.837Z,58.20
2023-04-30T20:10:52.293Z,58.30
2023-04-30T20:13:21.054Z,58.40
2023-04-30T20:15:49.590Z,58.40
2023-04-30T20:18:17.684Z,58.40
2023-04-30T20:20:46.063Z,58.50
2023-04-30T20:23:16.130Z,58.50
2023-04-30T20:25:45.695Z,58.70
2023-04-30T20:28:16.466Z,58.80
2023-04-30T20:30:45.030Z,58.80
2023-04-30T20:33:13.653Z,58.90
2023-04-30T20:35:41.995Z,59.10
2023-04-30T20:38:10.765Z,59.20
2023-04-30T20:40:40.554Z,59.20
2023-04-30T20:43:10.221Z,59.40
2023-04-30T20:45:40.126Z,59.50
2023-04-30T20:48:09.097Z,59.50
2023-04-30T20:50:37.745Z,59.60
2023-04-30T20:53:05.867Z,59.70
2023-04-30T20:55:33.917Z,59.80
2023-04-30T20:58:03.009Z,59.80
2023-04-30T21:00:31.145Z,59.80
2023-04-30T21:03:00.769Z,59.90
2023-04-30T21:05:30.146Z,60.00
2023-04-30T21:08:01.153Z,60.10
2023-04-30T21:10:35.585Z,60.20
2023-04-30T21:13:06.088Z,60.10
2023-04-30T21:15:36.699Z,60.20
2023-04-30T21:18:06.197Z,60.30
2023-04-30T21:20:34.303Z,60.40
2023-04-30T21:23:03.273Z,60.50
2023-04-30T21:25:31.393Z,60.40
2023-04-30T21:27:59.480Z,60.50
2023-04-30T21:30:27.589Z,60.60
2023-04-30T21:32:58.885Z,60.70
2023-04-30T21:35:33.523Z,60.70
2023-04-30T21:38:01.613Z,60.90
2023-04-30T21:40:33.637Z,61.00
2023-04-30T21:43:01.843Z,61.10
2023-04-30T21:45:30.777Z,61.00
2023-04-30T21:47:59.004Z,61.20
2023-04-30T21:50:28.631Z,61.40
2023-04-30T21:52:56.706Z,61.50
2023-04-30T21:55:25.007Z,61.60
2023-04-30T21:57:53.049Z,61.70
2023-04-30T22:00:21.420Z,61.80
2023-04-30T22:02:49.699Z,61.90
2023-04-30T22:05:18.975Z,62.00
2023-04-30T22:07:48.487Z,62.20
2023-04-30T22:10:16.592Z,62.30
2023-04-30T22:12:47.352Z,62.20
2023-04-30T22:15:16.609Z,62.50
2023-04-30T22:17:46.248Z,62.50
2023-04-30T22:20:14.775Z,62.60
2023-04-30T22:22:42.958Z,62.80
2023-04-30T22:25:12.499Z,62.70
2023-04-30T22:27:40.609Z,62.90
2023-04-30T22:30:09.493Z,63.00
2023-04-30T22:32:38.660Z,63.00
2023-04-30T22:35:08.149Z,63.10
2023-04-30T22:37:38.607Z,63.30
2023-04-30T22:40:08.183Z,63.40
2023-04-30T22:42:37.767Z,63.40
2023-04-30T22:45:06.857Z,63.50
2023-04-30T22:47:35.518Z,63.60
2023-04-30T22:50:04.846Z,63.80
2023-04-30T22:52:33.257Z,63.90
2023-04-30T22:55:01.802Z,63.90
2023-04-30T22:57:29.918Z,64.00
2023-04-30T22:59:59.358Z,64.10
2023-04-30T23:02:28.796Z,64.20
2023-04-30T23:04:56.977Z,64.30
2023-04-30T23:07:25.128Z,64.40
2023-04-30T23:09:53.436Z,64.50
2023-04-30T23:12:22.509Z,64.60
2023-04-30T23:14:50.913Z,64.70
2023-04-30T23:17:20.662Z,64.70
2023-04-30T23:19:48.777Z,64.80
2023-04-30T23:22:17.073Z,64.80
2023-04-30T23:24:45.727Z,64.90
2023-04-30T23:27:13.885Z,64.90
2023-04-30T23:29:42.965Z,65.00
2023-04-30T23:32:11.286Z,65.10
2023-04-30T23:34:40.752Z,65.10
2023-04-30T23:37:08.829Z,65.10
2023-04-30T23:39:36.910Z,65.20
2023-04-30T23:42:05.097Z,65.30
2023-04-30T23:44:33.206Z,65.40
2023-04-30T23:47:01.859Z,65.50
2023-04-30T23:49:29.932Z,65.60
2023-04-30T23:51:59.433Z,65.70
2023-04-30T23:54:27.581Z,65.90
2023-04-30T23:56:55.649Z,66.00
2023-04-30T23:59:25.760Z,66.00
